Neeley, Idaho
Current Conditions -  °F | °C
As of 8:53 PM on Sunday 23 Nov 2014 (Local Time) from KPIH Reporting Station
Overcast Overcast  
Wind Chill: 22°   Ceiling: 8500
Heat Index: 34°   Visibility: 10mi
Dew Point: 27°   Wind: 22mph
Humidity: 75%   Direction: 230°SW
Pressure: 30.14"   Gusts: NA
Location:  42.8287°N, 113.023°W
Report Text: KPIH 240353Z 23019KT 10SM OVC085 01/M03 A3014 RMK AO2 PK WND 23026/0350 SLP226 T00111028
Loading
Personal Weather Stations






























Interactive Weather Map New forecast layout! Learn more

10-Day Weather Forecast

Advertisements
Track Severe Weather on mobile